sensor_id;sensor_type;location;lat;lon;timestamp;pressure;altitude;pressure_sealevel;temperature;humidity
65546;BME280;52177;55.968;37.498;2023-02-13T00:00:13;99960.72;;;-8.24;73.82
65546;BME280;52177;55.968;37.498;2023-02-13T00:00:44;99961.53;;;-8.22;73.99
65546;BME280;52177;55.968;37.498;2023-02-13T00:01:15;99954.56;;;-8.20;73.81
65546;BME280;52177;55.968;37.498;2023-02-13T00:01:45;99957.13;;;-8.19;73.86
65546;BME280;52177;55.968;37.498;2023-02-13T00:02:16;99954.53;;;-8.19;73.71
65546;BME280;52177;55.968;37.498;2023-02-13T00:02:46;99952.78;;;-8.18;73.77
65546;BME280;52177;55.968;37.498;2023-02-13T00:03:17;99956.16;;;-8.16;73.78
65546;BME280;52177;55.968;37.498;2023-02-13T00:03:47;99960.44;;;-8.15;74.06
65546;BME280;52177;55.968;37.498;2023-02-13T00:04:18;99962.97;;;-8.14;74.05
65546;BME280;52177;55.968;37.498;2023-02-13T00:04:48;99952.59;;;-8.12;73.83
65546;BME280;52177;55.968;37.498;2023-02-13T00:05:18;99956.00;;;-8.12;73.80
65546;BME280;52177;55.968;37.498;2023-02-13T00:05:49;99945.66;;;-8.12;73.95
65546;BME280;52177;55.968;37.498;2023-02-13T00:06:20;99948.13;;;-8.09;73.94
65546;BME280;52177;55.968;37.498;2023-02-13T00:06:51;99954.94;;;-8.06;73.94
65546;BME280;52177;55.968;37.498;2023-02-13T00:07:21;99954.91;;;-8.04;73.88
65546;BME280;52177;55.968;37.498;2023-02-13T00:07:52;99949.72;;;-8.04;73.80
65546;BME280;52177;55.968;37.498;2023-02-13T00:08:22;99953.94;;;-8.02;73.75
65546;BME280;52177;55.968;37.498;2023-02-13T00:08:53;99954.78;;;-8.01;73.45
65546;BME280;52177;55.968;37.498;2023-02-13T00:09:23;99951.31;;;-8.00;73.52
65546;BME280;52177;55.968;37.498;2023-02-13T00:09:53;99956.50;;;-8.00;73.37
65546;BME280;52177;55.968;37.498;2023-02-13T00:10:24;99950.53;;;-8.02;73.46
65546;BME280;52177;55.968;37.498;2023-02-13T00:10:54;99949.59;;;-8.01;73.45
65546;BME280;52177;55.968;37.498;2023-02-13T00:11:25;99946.19;;;-8.02;73.40
65546;BME280;52177;55.968;37.498;2023-02-13T00:11:55;99947.03;;;-8.01;73.46
65546;BME280;52177;55.968;37.498;2023-02-13T00:12:26;99946.19;;;-8.02;73.34
65546;BME280;52177;55.968;37.498;2023-02-13T00:12:56;99946.97;;;-8.00;73.42
65546;BME280;52177;55.968;37.498;2023-02-13T00:13:27;99946.06;;;-7.99;73.55
65546;BME280;52177;55.968;37.498;2023-02-13T00:13:57;99946.97;;;-8.00;73.42
65546;BME280;52177;55.968;37.498;2023-02-13T00:14:27;99949.50;;;-7.98;73.49
65546;BME280;52177;55.968;37.498;2023-02-13T00:14:58;99936.63;;;-8.00;73.41
65546;BME280;52177;55.968;37.498;2023-02-13T00:15:29;99937.47;;;-7.99;73.58
65546;BME280;52177;55.968;37.498;2023-02-13T00:16:02;99940.06;;;-7.99;73.49
65546;BME280;52177;55.968;37.498;2023-02-13T00:16:33;99933.97;;;-7.98;73.50
65546;BME280;52177;55.968;37.498;2023-02-13T00:17:04;99932.19;;;-7.96;73.50
65546;BME280;52177;55.968;37.498;2023-02-13T00:17:35;99939.94;;;-7.96;73.51
65546;BME280;52177;55.968;37.498;2023-02-13T00:18:06;99937.44;;;-7.98;73.48
65546;BME280;52177;55.968;37.498;2023-02-13T00:18:37;99930.50;;;-7.97;73.54
65546;BME280;52177;55.968;37.498;2023-02-13T00:19:08;99932.19;;;-7.96;73.54
65546;BME280;52177;55.968;37.498;2023-02-13T00:19:38;99935.63;;;-7.96;73.43
65546;BME280;52177;55.968;37.498;2023-02-13T00:20:10;99932.97;;;-7.94;73.32
65546;BME280;52177;55.968;37.498;2023-02-13T00:20:40;99932.09;;;-7.93;73.52
65546;BME280;52177;55.968;37.498;2023-02-13T00:21:12;99932.03;;;-7.92;73.48
65546;BME280;52177;55.968;37.498;2023-02-13T00:21:42;99934.59;;;-7.92;73.53
65546;BME280;52177;55.968;37.498;2023-02-13T00:22:13;99925.13;;;-7.91;73.44
65546;BME280;52177;55.968;37.498;2023-02-13T00:22:45;99931.13;;;-7.91;73.34
65546;BME280;52177;55.968;37.498;2023-02-13T00:23:16;99923.38;;;-7.91;73.58
65546;BME280;52177;55.968;37.498;2023-02-13T00:23:46;99926.75;;;-7.89;73.59
65546;BME280;52177;55.968;37.498;2023-02-13T00:24:16;99921.63;;;-7.90;73.33
65546;BME280;52177;55.968;37.498;2023-02-13T00:24:47;99915.66;;;-7.92;73.47
65546;BME280;52177;55.968;37.498;2023-02-13T00:25:17;99921.63;;;-7.90;73.62
65546;BME280;52177;55.968;37.498;2023-02-13T00:25:48;99915.66;;;-7.92;73.36
65546;BME280;52177;55.968;37.498;2023-02-13T00:26:18;99919.09;;;-7.92;73.58
65546;BME280;52177;55.968;37.498;2023-02-13T00:26:49;99909.69;;;-7.94;73.61
65546;BME280;52177;55.968;37.498;2023-02-13T00:27:19;99910.59;;;-7.95;73.51
65546;BME280;52177;55.968;37.498;2023-02-13T00:27:50;99920.94;;;-7.95;73.51
65546;BME280;52177;55.968;37.498;2023-02-13T00:28:23;99914.06;;;-7.96;73.50
65546;BME280;52177;55.968;37.498;2023-02-13T00:28:55;99907.22;;;-7.97;73.47
65546;BME280;52177;55.968;37.498;2023-02-13T00:29:25;99902.00;;;-7.96;73.65
65546;BME280;52177;55.968;37.498;2023-02-13T00:29:56;99902.75;;;-7.94;73.72
65546;BME280;52177;55.968;37.498;2023-02-13T00:30:26;99901.94;;;-7.94;73.76
65546;BME280;52177;55.968;37.498;2023-02-13T00:31:23;99899.34;;;-7.94;73.61
65546;BME280;52177;55.968;37.498;2023-02-13T00:31:53;99897.66;;;-7.95;73.71
65546;BME280;52177;55.968;37.498;2023-02-13T00:32:24;99895.09;;;-7.95;73.62
65546;BME280;52177;55.968;37.498;2023-02-13T00:32:54;99903.72;;;-7.96;73.75
65546;BME280;52177;55.968;37.498;2023-02-13T00:33:24;99898.56;;;-7.96;73.82
65546;BME280;52177;55.968;37.498;2023-02-13T00:33:55;99900.31;;;-7.97;74.00
65546;BME280;52177;55.968;37.498;2023-02-13T00:34:26;99895.13;;;-7.97;73.85
65546;BME280;52177;55.968;37.498;2023-02-13T00:34:57;99898.63;;;-7.98;74.05
65546;BME280;52177;55.968;37.498;2023-02-13T00:35:27;99898.56;;;-7.96;74.00
65546;BME280;52177;55.968;37.498;2023-02-13T00:36:11;99896.88;;;-7.97;73.92
65546;BME280;52177;55.968;37.498;2023-02-13T00:36:42;99895.97;;;-7.96;74.18
65546;BME280;52177;55.968;37.498;2023-02-13T00:37:12;99895.97;;;-7.96;74.25
65546;BME280;52177;55.968;37.498;2023-02-13T00:37:43;99897.59;;;-7.94;74.21
65546;BME280;52177;55.968;37.498;2023-02-13T00:38:13;99895.88;;;-7.93;74.21
65546;BME280;52177;55.968;37.498;2023-02-13T00:38:44;99904.44;;;-7.91;74.21
65546;BME280;52177;55.968;37.498;2023-02-13T00:39:14;99893.28;;;-7.93;74.21
65546;BME280;52177;55.968;37.498;2023-02-13T00:39:45;99896.66;;;-7.91;74.27
65546;BME280;52177;55.968;37.498;2023-02-13T00:40:15;99899.19;;;-7.90;74.28
65546;BME280;52177;55.968;37.498;2023-02-13T00:40:46;99895.72;;;-7.89;74.29
65546;BME280;52177;55.968;37.498;2023-02-13T00:41:16;99892.22;;;-7.88;74.29
65546;BME280;52177;55.968;37.498;2023-02-13T00:41:47;99890.47;;;-7.87;74.27
65546;BME280;52177;55.968;37.498;2023-02-13T00:42:17;99891.25;;;-7.85;74.29
65546;BME280;52177;55.968;37.498;2023-02-13T00:42:47;99887.78;;;-7.84;74.29
65546;BME280;52177;55.968;37.498;2023-02-13T00:43:18;99887.78;;;-7.84;74.22
65546;BME280;52177;55.968;37.498;2023-02-13T00:43:48;99892.03;;;-7.83;74.33
65546;BME280;52177;55.968;37.498;2023-02-13T00:44:19;99888.53;;;-7.82;74.31
65546;BME280;52177;55.968;37.498;2023-02-13T00:44:49;99889.41;;;-7.81;74.27
65546;BME280;52177;55.968;37.498;2023-02-13T00:45:20;99888.50;;;-7.80;74.30
65546;BME280;52177;55.968;37.498;2023-02-13T00:45:50;99883.28;;;-7.79;74.22
65546;BME280;52177;55.968;37.498;2023-02-13T00:46:21;99890.91;;;-7.76;74.37
65546;BME280;52177;55.968;37.498;2023-02-13T00:46:51;99886.66;;;-7.77;74.25
65546;BME280;52177;55.968;37.498;2023-02-13T00:47:22;99884.06;;;-7.77;74.12
65546;BME280;52177;55.968;37.498;2023-02-13T00:47:52;99891.75;;;-7.75;74.18
65546;BME280;52177;55.968;37.498;2023-02-13T00:48:24;99890.88;;;-7.74;74.23
65546;BME280;52177;55.968;37.498;2023-02-13T00:48:54;99886.53;;;-7.74;74.24
65546;BME280;52177;55.968;37.498;2023-02-13T00:49:25;99886.50;;;-7.72;74.42
65546;BME280;52177;55.968;37.498;2023-02-13T00:49:55;99889.91;;;-7.72;74.24
65546;BME280;52177;55.968;37.498;2023-02-13T00:50:26;99883.91;;;-7.72;74.28
65546;BME280;52177;55.968;37.498;2023-02-13T00:50:56;99881.22;;;-7.71;74.20
65546;BME280;52177;55.968;37.498;2023-02-13T00:51:27;99876.94;;;-7.70;74.39
65546;BME280;52177;55.968;37.498;2023-02-13T00:51:57;99887.19;;;-7.69;74.16
65546;BME280;52177;55.968;37.498;2023-02-13T00:52:27;99885.44;;;-7.68;74.50
65546;BME280;52177;55.968;37.498;2023-02-13T00:52:58;99887.16;;;-7.67;74.26
65546;BME280;52177;55.968;37.498;2023-02-13T00:53:29;99883.72;;;-7.68;74.23
65546;BME280;52177;55.968;37.498;2023-02-13T00:53:59;99880.28;;;-7.68;74.31
65546;BME280;52177;55.968;37.498;2023-02-13T00:54:30;99884.63;;;-7.69;74.13
65546;BME280;52177;55.968;37.498;2023-02-13T00:55:00;99889.78;;;-7.69;74.26
65546;BME280;52177;55.968;37.498;2023-02-13T00:55:31;99881.22;;;-7.71;74.20
65546;BME280;52177;55.968;37.498;2023-02-13T00:56:03;99882.94;;;-7.70;74.30
65546;BME280;52177;55.968;37.498;2023-02-13T00:56:33;99878.72;;;-7.72;74.10
65546;BME280;52177;55.968;37.498;2023-02-13T00:57:04;99879.56;;;-7.72;74.24
65546;BME280;52177;55.968;37.498;2023-02-13T00:57:34;99881.31;;;-7.72;74.15
65546;BME280;52177;55.968;37.498;2023-02-13T00:58:05;99883.91;;;-7.72;74.29
65546;BME280;52177;55.968;37.498;2023-02-13T00:58:35;99889.91;;;-7.72;74.36
65546;BME280;52177;55.968;37.498;2023-02-13T00:59:05;99880.44;;;-7.73;74.35
65546;BME280;52177;55.968;37.498;2023-02-13T00:59:36;99881.34;;;-7.74;74.36
65546;BME280;52177;55.968;37.498;2023-02-13T01:00:07;99884.84;;;-7.75;74.26
65546;BME280;52177;55.968;37.498;2023-02-13T01:00:38;99882.19;;;-7.73;74.50
65546;BME280;52177;55.968;37.498;2023-02-13T01:01:08;99876.19;;;-7.74;74.51
65546;BME280;52177;55.968;37.498;2023-02-13T01:01:39;99888.16;;;-7.71;74.49
65546;BME280;52177;55.968;37.498;2023-02-13T01:02:09;99883.81;;;-7.71;74.51
65546;BME280;52177;55.968;37.498;2023-02-13T01:02:39;99879.56;;;-7.72;74.35
65546;BME280;52177;55.968;37.498;2023-02-13T01:03:10;99882.19;;;-7.73;74.52
65546;BME280;52177;55.968;37.498;2023-02-13T01:03:40;99878.72;;;-7.72;74.54
65546;BME280;52177;55.968;37.498;2023-02-13T01:04:11;99883.91;;;-7.72;74.66
65546;BME280;52177;55.968;37.498;2023-02-13T01:04:41;99879.59;;;-7.73;74.47
65546;BME280;52177;55.968;37.498;2023-02-13T01:05:11;99881.34;;;-7.74;74.57
65546;BME280;52177;55.968;37.498;2023-02-13T01:05:42;99883.91;;;-7.72;74.75
65546;BME280;52177;55.968;37.498;2023-02-13T01:06:13;99879.56;;;-7.72;74.63
65546;BME280;52177;55.968;37.498;2023-02-13T01:06:43;99877.00;;;-7.73;74.64
65546;BME280;52177;55.968;37.498;2023-02-13T01:07:14;99877.84;;;-7.73;74.48
65546;BME280;52177;55.968;37.498;2023-02-13T01:07:44;99880.44;;;-7.73;74.67
65546;BME280;52177;55.968;37.498;2023-02-13T01:08:16;99887.28;;;-7.70;74.63
65546;BME280;52177;55.968;37.498;2023-02-13T01:08:46;99873.53;;;-7.72;74.61
65546;BME280;52177;55.968;37.498;2023-02-13T01:09:17;99870.88;;;-7.71;74.65
65546;BME280;52177;55.968;37.498;2023-02-13T01:09:47;99870.84;;;-7.69;nan
65546;BME280;52177;55.968;37.498;2023-02-13T01:10:17;99879.44;;;-7.69;74.61
65546;BME280;52177;55.968;37.498;2023-02-13T01:10:48;99874.25;;;-7.69;74.45
65546;BME280;52177;55.968;37.498;2023-02-13T01:11:18;99875.09;;;-7.68;74.65
65546;BME280;52177;55.968;37.498;2023-02-13T01:11:49;99881.13;;;-7.68;74.48
65546;BME280;52177;55.968;37.498;2023-02-13T01:12:19;99877.63;;;-7.67;74.65
65546;BME280;52177;55.968;37.498;2023-02-13T01:12:50;99874.13;;;-7.66;74.82
65546;BME280;52177;55.968;37.498;2023-02-13T01:13:21;99867.16;;;-7.64;74.76
65546;BME280;52177;55.968;37.498;2023-02-13T01:13:51;99869.69;;;-7.62;74.84
65546;BME280;52177;55.968;37.498;2023-02-13T01:14:21;99871.31;;;-7.59;74.74
65546;BME280;52177;55.968;37.498;2023-02-13T01:14:52;99873.88;;;-7.58;74.82
65546;BME280;52177;55.968;37.498;2023-02-13T01:15:22;99869.53;;;-7.57;74.68
65546;BME280;52177;55.968;37.498;2023-02-13T01:15:53;99867.72;;;-7.55;74.65
65546;BME280;52177;55.968;37.498;2023-02-13T01:16:23;99867.72;;;-7.55;74.63
65546;BME280;52177;55.968;37.498;2023-02-13T01:16:54;99861.72;;;-7.56;74.58
65546;BME280;52177;55.968;37.498;2023-02-13T01:17:24;99865.09;;;-7.54;74.51
65546;BME280;52177;55.968;37.498;2023-02-13T01:17:55;99859.00;;;-7.53;74.56
65546;BME280;52177;55.968;37.498;2023-02-13T01:18:26;99852.91;;;-7.52;74.67
65546;BME280;52177;55.968;37.498;2023-02-13T01:18:57;99858.03;;;-7.50;74.74
65546;BME280;52177;55.968;37.498;2023-02-13T01:19:27;99857.13;;;-7.49;74.71
65546;BME280;52177;55.968;37.498;2023-02-13T01:19:57;99855.31;;;-7.47;74.61
65546;BME280;52177;55.968;37.498;2023-02-13T01:20:28;99856.19;;;-7.47;74.75
65546;BME280;52177;55.968;37.498;2023-02-13T01:21:06;99859.50;;;-7.43;74.70
65546;BME280;52177;55.968;37.498;2023-02-13T01:21:37;99854.31;;;-7.43;74.61
65546;BME280;52177;55.968;37.498;2023-02-13T01:22:08;99851.75;;;-7.45;74.60
65546;BME280;52177;55.968;37.498;2023-02-13T01:22:39;99852.63;;;-7.44;74.46
65546;BME280;52177;55.968;37.498;2023-02-13T01:23:10;99852.63;;;-7.44;74.43
65546;BME280;52177;55.968;37.498;2023-02-13T01:23:41;99845.75;;;-7.45;74.48
65546;BME280;52177;55.968;37.498;2023-02-13T01:24:11;99856.06;;;-7.44;74.58
65546;BME280;52177;55.968;37.498;2023-02-13T01:24:42;99843.13;;;-7.44;74.38
65546;BME280;52177;55.968;37.498;2023-02-13T01:25:12;99849.13;;;-7.43;74.47
65546;BME280;52177;55.968;37.498;2023-02-13T01:25:42;99842.16;;;-7.41;74.60
65546;BME280;52177;55.968;37.498;2023-02-13T01:26:22;99847.31;;;-7.41;74.42
65546;BME280;52177;55.968;37.498;2023-02-13T01:26:52;99838.59;;;-7.38;74.32
65546;BME280;52177;55.968;37.498;2023-02-13T01:27:23;99843.81;;;-7.40;74.40
65546;BME280;52177;55.968;37.498;2023-02-13T01:27:53;99843.00;;;-7.40;74.42
65546;BME280;52177;55.968;37.498;2023-02-13T01:28:24;99836.97;;;-7.41;74.45
65546;BME280;52177;55.968;37.498;2023-02-13T01:28:54;99843.81;;;-7.40;74.53
65546;BME280;52177;55.968;37.498;2023-02-13T01:29:27;99840.41;;;-7.40;74.49
65546;BME280;52177;55.968;37.498;2023-02-13T01:29:58;99838.66;;;-7.40;74.38
65546;BME280;52177;55.968;37.498;2023-02-13T01:30:29;99833.53;;;-7.41;74.38
65546;BME280;52177;55.968;37.498;2023-02-13T01:30:59;99831.78;;;-7.41;74.45
65546;BME280;52177;55.968;37.498;2023-02-13T01:31:30;99834.25;;;-7.38;74.25
65546;BME280;52177;55.968;37.498;2023-02-13T01:32:00;99831.78;;;-7.41;74.13
65546;BME280;52177;55.968;37.498;2023-02-13T01:32:34;99831.00;;;-7.43;74.19
65546;BME280;52177;55.968;37.498;2023-02-13T01:33:04;99830.13;;;-7.42;74.17
65546;BME280;52177;55.968;37.498;2023-02-13T01:33:34;99831.00;;;-7.43;74.19
65546;BME280;52177;55.968;37.498;2023-02-13T01:34:05;99825.81;;;-7.43;74.25
65546;BME280;52177;55.968;37.498;2023-02-13T01:34:35;99827.59;;;-7.44;74.35
65546;BME280;52177;55.968;37.498;2023-02-13T01:35:07;99822.34;;;-7.42;74.37
65546;BME280;52177;55.968;37.498;2023-02-13T01:35:38;99824.06;;;-7.43;74.34
65546;BME280;52177;55.968;37.498;2023-02-13T01:36:10;99823.25;;;-7.43;74.38
65546;BME280;52177;55.968;37.498;2023-02-13T01:36:41;99824.94;;;-7.42;74.46
65546;BME280;52177;55.968;37.498;2023-02-13T01:37:12;99824.94;;;-7.42;74.41
65546;BME280;52177;55.968;37.498;2023-02-13T01:37:43;99822.34;;;-7.42;74.44
65546;BME280;52177;55.968;37.498;2023-02-13T01:38:13;99818.06;;;-7.43;74.29
65546;BME280;52177;55.968;37.498;2023-02-13T01:38:44;99816.44;;;-7.46;74.13
65546;BME280;52177;55.968;37.498;2023-02-13T01:39:14;99821.63;;;-7.46;74.43
65546;BME280;52177;55.968;37.498;2023-02-13T01:39:44;99816.50;;;-7.47;74.64
65546;BME280;52177;55.968;37.498;2023-02-13T01:40:15;99814.81;;;-7.48;74.69
65546;BME280;52177;55.968;37.498;2023-02-13T01:40:51;99811.31;;;-7.47;74.71
65546;BME280;52177;55.968;37.498;2023-02-13T01:41:22;99817.28;;;-7.45;74.72
65546;BME280;52177;55.968;37.498;2023-02-13T01:41:52;99813.00;;;-7.46;74.73
65546;BME280;52177;55.968;37.498;2023-02-13T01:42:28;99810.41;;;-7.46;74.46
65546;BME280;52177;55.968;37.498;2023-02-13T01:42:59;99804.50;;;-7.50;74.78
65546;BME280;52177;55.968;37.498;2023-02-13T01:45:34;99801.13;;;-7.52;74.92
65546;BME280;52177;55.968;37.498;2023-02-13T01:46:04;99797.66;;;-7.51;74.96
65546;BME280;52177;55.968;37.498;2023-02-13T01:46:38;99800.25;;;-7.51;74.76
65546;BME280;52177;55.968;37.498;2023-02-13T01:47:13;99791.56;;;-7.50;74.78
65546;BME280;52177;55.968;37.498;2023-02-13T01:48:25;99795.00;;;-7.49;74.82
65546;BME280;52177;55.968;37.498;2023-02-13T01:49:17;99794.22;;;-7.51;75.10
65546;BME280;52177;55.968;37.498;2023-02-13T01:49:57;99788.28;;;-7.53;75.02
65546;BME280;52177;55.968;37.498;2023-02-13T01:51:20;99783.09;;;-7.53;75.29
65546;BME280;52177;55.968;37.498;2023-02-13T01:51:53;99788.19;;;-7.52;75.22
65546;BME280;52177;55.968;37.498;2023-02-13T01:52:25;99783.88;;;-7.51;75.19
65546;BME280;52177;55.968;37.498;2023-02-13T01:53:37;99788.00;;;-7.47;75.31
65546;BME280;52177;55.968;37.498;2023-02-13T01:54:12;99785.41;;;-7.47;75.18
65546;BME280;52177;55.968;37.498;2023-02-13T01:54:44;99788.91;;;-7.48;75.25
65546;BME280;52177;55.968;37.498;2023-02-13T01:55:16;99789.75;;;-7.48;75.16
65546;BME280;52177;55.968;37.498;2023-02-13T01:56:00;99789.72;;;-7.46;75.12
65546;BME280;52177;55.968;37.498;2023-02-13T01:56:40;99786.28;;;-7.47;75.11
65546;BME280;52177;55.968;37.498;2023-02-13T01:57:18;99782.72;;;-7.44;74.97
65546;BME280;52177;55.968;37.498;2023-02-13T01:57:55;99784.44;;;-7.45;75.00
65546;BME280;52177;55.968;37.498;2023-02-13T01:58:31;99780.97;;;-7.44;75.21
65546;BME280;52177;55.968;37.498;2023-02-13T01:59:08;99776.63;;;-7.43;74.87
65546;BME280;52177;55.968;37.498;2023-02-13T01:59:46;99784.28;;;-7.40;74.99
65546;BME280;52177;55.968;37.498;2023-02-13T02:00:17;99774.81;;;-7.41;74.91
65546;BME280;52177;55.968;37.498;2023-02-13T02:00:48;99780.00;;;-7.41;74.97
65546;BME280;52177;55.968;37.498;2023-02-13T02:01:19;99774.00;;;-7.41;74.89
65546;BME280;52177;55.968;37.498;2023-02-13T02:01:51;99780.84;;;-7.40;74.98
65546;BME280;52177;55.968;37.498;2023-02-13T02:02:23;99777.47;;;-7.43;74.98
65546;BME280;52177;55.968;37.498;2023-02-13T02:02:58;99778.34;;;-7.42;75.03
65546;BME280;52177;55.968;37.498;2023-02-13T02:04:08;99774.69;;;-7.38;75.13
65546;BME280;52177;55.968;37.498;2023-02-13T02:04:40;99778.16;;;-7.37;75.14
65546;BME280;52177;55.968;37.498;2023-02-13T02:05:12;99771.28;;;-7.38;75.14
65546;BME280;52177;55.968;37.498;2023-02-13T02:05:43;99768.53;;;-7.35;75.14
65546;BME280;52177;55.968;37.498;2023-02-13T02:06:18;99770.25;;;-7.34;75.15
65546;BME280;52177;55.968;37.498;2023-02-13T02:06:55;99765.91;;;-7.34;75.11
65546;BME280;52177;55.968;37.498;2023-02-13T02:07:28;99764.88;;;-7.30;75.20
65546;BME280;52177;55.968;37.498;2023-02-13T02:08:01;99765.72;;;-7.29;74.89
65546;BME280;52177;55.968;37.498;2023-02-13T02:08:33;99763.97;;;-7.29;74.91
65546;BME280;52177;55.968;37.498;2023-02-13T02:09:12;99767.41;;;-7.28;74.77
65546;BME280;52177;55.968;37.498;2023-02-13T02:09:45;99763.97;;;-7.29;74.80
65546;BME280;52177;55.968;37.498;2023-02-13T02:10:18;99767.41;;;-7.28;74.73
65546;BME280;52177;55.968;37.498;2023-02-13T02:10:49;99765.66;;;-7.28;74.74
65546;BME280;52177;55.968;37.498;2023-02-13T02:12:36;99767.34;;;-7.27;74.91
65546;BME280;52177;55.968;37.498;2023-02-13T02:13:17;99758.78;;;-7.29;75.07
65546;BME280;52177;55.968;37.498;2023-02-13T02:13:49;99769.97;;;-7.28;75.01
65546;BME280;52177;55.968;37.498;2023-02-13T02:14:20;99762.22;;;-7.28;75.00
65546;BME280;52177;55.968;37.498;2023-02-13T02:14:52;99757.81;;;-7.26;75.07
65546;BME280;52177;55.968;37.498;2023-02-13T02:15:24;99763.91;;;-7.27;74.99
65546;BME280;52177;55.968;37.498;2023-02-13T02:15:54;99756.97;;;-7.27;75.02
65546;BME280;52177;55.968;37.498;2023-02-13T02:16:25;99760.34;;;-7.25;75.07
65546;BME280;52177;55.968;37.498;2023-02-13T02:16:56;99761.19;;;-7.24;75.05
65546;BME280;52177;55.968;37.498;2023-02-13T02:17:27;99764.63;;;-7.24;75.12
65546;BME280;52177;55.968;37.498;2023-02-13T02:17:58;99761.19;;;-7.24;75.07
65546;BME280;52177;55.968;37.498;2023-02-13T02:18:28;99755.97;;;-7.23;74.92
65546;BME280;52177;55.968;37.498;2023-02-13T02:19:03;99765.47;;;-7.23;75.09
65546;BME280;52177;55.968;37.498;2023-02-13T02:27:25;99747.34;;;-7.23;75.16
65546;BME280;52177;55.968;37.498;2023-02-13T02:32:55;99742.22;;;-7.25;75.24
65546;BME280;52177;55.968;37.498;2023-02-13T02:38:16;99747.34;;;-7.23;75.59
65546;BME280;52177;55.968;37.498;2023-02-13T02:39:02;99740.56;;;-7.26;75.66
65546;BME280;52177;55.968;37.498;2023-02-13T02:44:26;99729.28;;;-7.25;75.93
65546;BME280;52177;55.968;37.498;2023-02-13T02:46:35;99725.66;;;-7.20;75.93
65546;BME280;52177;55.968;37.498;2023-02-13T02:48:17;99723.13;;;-7.22;75.98
65546;BME280;52177;55.968;37.498;2023-02-13T02:49:14;99723.13;;;-7.22;76.14
65546;BME280;52177;55.968;37.498;2023-02-13T02:50:10;99731.72;;;-7.22;76.16
65546;BME280;52177;55.968;37.498;2023-02-13T02:50:49;99726.63;;;-7.23;76.23
65546;BME280;52177;55.968;37.498;2023-02-13T02:51:23;99727.34;;;-7.19;75.97
65546;BME280;52177;55.968;37.498;2023-02-13T02:52:46;99717.75;;;-7.17;75.95
65546;BME280;52177;55.968;37.498;2023-02-13T02:53:39;99713.41;;;-7.17;76.11
65546;BME280;52177;55.968;37.498;2023-02-13T02:54:15;99710.75;;;-7.15;76.06
65546;BME280;52177;55.968;37.498;2023-02-13T02:56:39;99698.66;;;-7.15;75.97
65546;BME280;52177;55.968;37.498;2023-02-13T02:57:17;99702.03;;;-7.13;76.05
65546;BME280;52177;55.968;37.498;2023-02-13T02:57:58;99695.03;;;-7.11;75.92
65546;BME280;52177;55.968;37.498;2023-02-13T02:58:59;99698.41;;;-7.09;75.71
65546;BME280;52177;55.968;37.498;2023-02-13T02:59:51;99701.81;;;-7.08;76.01
65546;BME280;52177;55.968;37.498;2023-02-13T03:00:42;99700.06;;;-7.08;76.04
65546;BME280;52177;55.968;37.498;2023-02-13T03:01:32;99701.78;;;-7.07;75.89
65546;BME280;52177;55.968;37.498;2023-02-13T03:02:22;99707.72;;;-7.05;75.90
65546;BME280;52177;55.968;37.498;2023-02-13T03:03:22;99699.09;;;-7.05;75.71
65546;BME280;52177;55.968;37.498;2023-02-13T03:04:19;99702.56;;;-7.05;75.93
65546;BME280;52177;55.968;37.498;2023-02-13T03:05:37;99698.25;;;-7.06;76.01
65546;BME280;52177;55.968;37.498;2023-02-13T03:06:46;99693.91;;;-7.05;75.86
65546;BME280;52177;55.968;37.498;2023-02-13T03:07:18;99689.72;;;-7.08;76.30
65546;BME280;52177;55.968;37.498;2023-02-13T03:07:49;99694.00;;;-7.07;76.24
65546;BME280;52177;55.968;37.498;2023-02-13T03:08:19;99692.31;;;-7.08;76.17
65546;BME280;52177;55.968;37.498;2023-02-13T03:09:14;99690.50;;;-7.06;76.15
65546;BME280;52177;55.968;37.498;2023-02-13T03:10:30;99692.19;;;-7.05;76.30
65546;BME280;52177;55.968;37.498;2023-02-13T03:11:21;99690.34;;;-7.03;76.13
65546;BME280;52177;55.968;37.498;2023-02-13T03:12:12;99686.03;;;-7.02;76.14
65546;BME280;52177;55.968;37.498;2023-02-13T03:13:15;99681.75;;;-7.03;75.90
65546;BME280;52177;55.968;37.498;2023-02-13T03:13:50;99682.56;;;-7.03;76.07
65546;BME280;52177;55.968;37.498;2023-02-13T03:14:26;99677.41;;;-7.03;76.16
65546;BME280;52177;55.968;37.498;2023-02-13T03:14:57;99679.16;;;-7.03;76.19
65546;BME280;52177;55.968;37.498;2023-02-13T03:15:28;99680.00;;;-7.03;76.23
65546;BME280;52177;55.968;37.498;2023-02-13T03:15:59;99677.34;;;-7.01;76.27
65546;BME280;52177;55.968;37.498;2023-02-13T03:16:49;99677.41;;;-7.03;76.31
65546;BME280;52177;55.968;37.498;2023-02-13T03:17:38;99674.69;;;-6.99;76.30
65546;BME280;52177;55.968;37.498;2023-02-13T03:18:30;99663.56;;;-7.02;76.19
65546;BME280;52177;55.968;37.498;2023-02-13T03:20:54;99660.19;;;-7.04;76.47
65546;BME280;52177;55.968;37.498;2023-02-13T03:21:58;99668.78;;;-7.03;76.64
65546;BME280;52177;55.968;37.498;2023-02-13T03:23:42;99666.97;;;-7.01;76.52
65546;BME280;52177;55.968;37.498;2023-02-13T03:24:24;99659.16;;;-6.99;76.36
65546;BME280;52177;55.968;37.498;2023-02-13T03:25:20;99654.81;;;-6.99;76.14
65546;BME280;52177;55.968;37.498;2023-02-13T03:26:18;99653.09;;;-7.00;76.49
65546;BME280;52177;55.968;37.498;2023-02-13T03:29:00;99638.47;;;-7.01;76.49
65546;BME280;52177;55.968;37.498;2023-02-13T03:30:04;99640.16;;;-7.00;76.47
65546;BME280;52177;55.968;37.498;2023-02-13T03:32:36;99629.66;;;-6.97;76.63
65546;BME280;52177;55.968;37.498;2023-02-13T03:34:09;99625.13;;;-6.92;76.51
65546;BME280;52177;55.968;37.498;2023-02-13T03:34:48;99625.94;;;-6.91;76.54
65546;BME280;52177;55.968;37.498;2023-02-13T03:37:26;99616.38;;;-6.89;76.31
65546;BME280;52177;55.968;37.498;2023-02-13T03:38:23;99618.81;;;-6.86;76.40
65546;BME280;52177;55.968;37.498;2023-02-13T03:39:04;99613.56;;;-6.85;76.33
65546;BME280;52177;55.968;37.498;2023-02-13T03:40:57;99610.97;;;-6.85;76.49
65546;BME280;52177;55.968;37.498;2023-02-13T03:42:06;99623.00;;;-6.84;76.61
65546;BME280;52177;55.968;37.498;2023-02-13T03:43:06;99625.47;;;-6.81;76.41
65546;BME280;52177;55.968;37.498;2023-02-13T03:43:46;99623.72;;;-6.80;76.58
65546;BME280;52177;55.968;37.498;2023-02-13T03:45:15;99620.16;;;-6.77;76.42